sensor_id;sensor_type;location;lat;lon;timestamp;P1;durP1;ratioP1;P2;durP2;ratioP2
79401;SDS011;68857;47.916;106.940;2023-05-07T00:01:15;10.30;;;4.70;;
79401;SDS011;68857;47.916;106.940;2023-05-07T00:03:42;8.07;;;4.45;;
79401;SDS011;68857;47.916;106.940;2023-05-07T00:06:09;8.32;;;4.10;;
79401;SDS011;68857;47.916;106.940;2023-05-07T00:08:38;9.07;;;4.63;;
79401;SDS011;68857;47.916;106.940;2023-05-07T00:11:04;10.18;;;6.15;;
79401;SDS011;68857;47.916;106.940;2023-05-07T00:13:31;9.77;;;4.65;;
79401;SDS011;68857;47.916;106.940;2023-05-07T00:16:01;13.15;;;4.50;;
79401;SDS011;68857;47.916;106.940;2023-05-07T00:18:28;10.00;;;5.20;;
79401;SDS011;68857;47.916;106.940;2023-05-07T00:20:54;10.18;;;4.30;;
79401;SDS011;68857;47.916;106.940;2023-05-07T00:23:21;8.75;;;5.07;;
79401;SDS011;68857;47.916;106.940;2023-05-07T00:25:48;9.30;;;4.63;;
79401;SDS011;68857;47.916;106.940;2023-05-07T00:28:15;9.07;;;4.50;;
79401;SDS011;68857;47.916;106.940;2023-05-07T00:30:41;8.27;;;4.53;;
79401;SDS011;68857;47.916;106.940;2023-05-07T00:33:08;9.70;;;5.38;;
79401;SDS011;68857;47.916;106.940;2023-05-07T00:35:34;10.00;;;4.72;;
79401;SDS011;68857;47.916;106.940;2023-05-07T00:38:01;11.07;;;4.78;;
79401;SDS011;68857;47.916;106.940;2023-05-07T00:40:27;8.93;;;4.57;;
79401;SDS011;68857;47.916;106.940;2023-05-07T00:42:54;8.55;;;4.68;;
79401;SDS011;68857;47.916;106.940;2023-05-07T00:45:26;12.52;;;4.38;;
79401;SDS011;68857;47.916;106.940;2023-05-07T00:47:57;10.98;;;5.22;;
79401;SDS011;68857;47.916;106.940;2023-05-07T00:50:24;10.23;;;5.68;;
79401;SDS011;68857;47.916;106.940;2023-05-07T00:52:51;16.13;;;6.50;;
79401;SDS011;68857;47.916;106.940;2023-05-07T00:55:18;12.30;;;6.85;;
79401;SDS011;68857;47.916;106.940;2023-05-07T00:57:45;14.20;;;7.03;;
79401;SDS011;68857;47.916;106.940;2023-05-07T01:00:12;12.38;;;6.70;;
79401;SDS011;68857;47.916;106.940;2023-05-07T01:02:39;12.75;;;7.53;;
79401;SDS011;68857;47.916;106.940;2023-05-07T01:05:06;12.52;;;7.18;;
79401;SDS011;68857;47.916;106.940;2023-05-07T01:07:34;11.00;;;6.75;;
79401;SDS011;68857;47.916;106.940;2023-05-07T01:10:02;13.18;;;6.68;;
79401;SDS011;68857;47.916;106.940;2023-05-07T01:12:29;11.43;;;6.32;;
79401;SDS011;68857;47.916;106.940;2023-05-07T01:14:57;11.80;;;6.30;;
79401;SDS011;68857;47.916;106.940;2023-05-07T01:17:23;10.95;;;5.88;;
79401;SDS011;68857;47.916;106.940;2023-05-07T01:19:50;11.85;;;5.60;;
79401;SDS011;68857;47.916;106.940;2023-05-07T01:22:25;11.38;;;6.03;;
79401;SDS011;68857;47.916;106.940;2023-05-07T01:24:53;11.65;;;5.65;;
79401;SDS011;68857;47.916;106.940;2023-05-07T01:27:21;10.20;;;5.47;;
79401;SDS011;68857;47.916;106.940;2023-05-07T01:29:47;10.57;;;5.43;;
79401;SDS011;68857;47.916;106.940;2023-05-07T01:32:14;12.88;;;6.25;;
79401;SDS011;68857;47.916;106.940;2023-05-07T01:34:42;10.85;;;5.72;;
79401;SDS011;68857;47.916;106.940;2023-05-07T01:37:09;9.75;;;5.53;;
79401;SDS011;68857;47.916;106.940;2023-05-07T01:39:38;11.43;;;6.85;;
79401;SDS011;68857;47.916;106.940;2023-05-07T01:42:05;11.60;;;6.63;;
79401;SDS011;68857;47.916;106.940;2023-05-07T01:44:32;15.30;;;6.82;;
79401;SDS011;68857;47.916;106.940;2023-05-07T01:46:59;14.18;;;7.32;;
79401;SDS011;68857;47.916;106.940;2023-05-07T01:49:26;11.75;;;6.22;;
79401;SDS011;68857;47.916;106.940;2023-05-07T01:51:52;14.98;;;6.55;;
79401;SDS011;68857;47.916;106.940;2023-05-07T01:54:19;12.05;;;6.85;;
79401;SDS011;68857;47.916;106.940;2023-05-07T01:56:46;13.77;;;6.35;;
79401;SDS011;68857;47.916;106.940;2023-05-07T01:59:14;10.10;;;5.40;;
79401;SDS011;68857;47.916;106.940;2023-05-07T02:01:41;12.43;;;5.65;;
79401;SDS011;68857;47.916;106.940;2023-05-07T02:04:07;12.20;;;6.00;;
79401;SDS011;68857;47.916;106.940;2023-05-07T02:06:34;14.32;;;6.60;;
79401;SDS011;68857;47.916;106.940;2023-05-07T02:09:01;15.05;;;5.68;;
79401;SDS011;68857;47.916;106.940;2023-05-07T02:11:27;14.15;;;5.45;;
79401;SDS011;68857;47.916;106.940;2023-05-07T02:13:54;16.00;;;6.53;;
79401;SDS011;68857;47.916;106.940;2023-05-07T02:16:20;14.65;;;6.18;;
79401;SDS011;68857;47.916;106.940;2023-05-07T02:18:48;11.13;;;5.47;;
79401;SDS011;68857;47.916;106.940;2023-05-07T02:21:15;16.10;;;5.38;;
79401;SDS011;68857;47.916;106.940;2023-05-07T02:23:41;15.35;;;6.15;;
79401;SDS011;68857;47.916;106.940;2023-05-07T02:26:08;11.25;;;5.88;;
79401;SDS011;68857;47.916;106.940;2023-05-07T02:28:35;15.88;;;6.53;;
79401;SDS011;68857;47.916;106.940;2023-05-07T02:31:04;17.13;;;6.50;;
79401;SDS011;68857;47.916;106.940;2023-05-07T02:33:31;16.10;;;7.45;;
79401;SDS011;68857;47.916;106.940;2023-05-07T02:36:09;20.40;;;6.90;;
79401;SDS011;68857;47.916;106.940;2023-05-07T02:38:36;21.80;;;8.02;;
79401;SDS011;68857;47.916;106.940;2023-05-07T02:41:03;21.65;;;6.28;;
79401;SDS011;68857;47.916;106.940;2023-05-07T02:43:30;20.40;;;6.72;;
79401;SDS011;68857;47.916;106.940;2023-05-07T02:46:14;15.25;;;6.10;;
79401;SDS011;68857;47.916;106.940;2023-05-07T02:48:41;15.55;;;6.45;;
79401;SDS011;68857;47.916;106.940;2023-05-07T02:51:08;17.08;;;6.75;;
79401;SDS011;68857;47.916;106.940;2023-05-07T02:53:34;15.38;;;5.90;;
79401;SDS011;68857;47.916;106.940;2023-05-07T02:56:01;16.05;;;6.45;;
79401;SDS011;68857;47.916;106.940;2023-05-07T02:58:28;16.48;;;6.10;;
79401;SDS011;68857;47.916;106.940;2023-05-07T03:00:54;13.43;;;6.43;;
79401;SDS011;68857;47.916;106.940;2023-05-07T03:03:21;16.83;;;7.38;;
79401;SDS011;68857;47.916;106.940;2023-05-07T03:05:48;13.55;;;5.78;;
79401;SDS011;68857;47.916;106.940;2023-05-07T03:08:14;16.88;;;6.57;;
79401;SDS011;68857;47.916;106.940;2023-05-07T03:10:41;14.32;;;6.07;;
79401;SDS011;68857;47.916;106.940;2023-05-07T03:13:08;12.30;;;5.60;;
79401;SDS011;68857;47.916;106.940;2023-05-07T03:15:34;14.13;;;5.47;;
79401;SDS011;68857;47.916;106.940;2023-05-07T03:18:01;12.48;;;6.10;;
79401;SDS011;68857;47.916;106.940;2023-05-07T03:20:28;10.73;;;5.63;;
79401;SDS011;68857;47.916;106.940;2023-05-07T03:22:55;10.55;;;5.93;;
79401;SDS011;68857;47.916;106.940;2023-05-07T03:25:21;13.13;;;5.43;;
79401;SDS011;68857;47.916;106.940;2023-05-07T03:27:48;13.00;;;5.53;;
79401;SDS011;68857;47.916;106.940;2023-05-07T03:30:15;11.48;;;5.53;;
79401;SDS011;68857;47.916;106.940;2023-05-07T03:32:41;14.40;;;5.82;;
79401;SDS011;68857;47.916;106.940;2023-05-07T03:35:08;14.55;;;6.15;;
79401;SDS011;68857;47.916;106.940;2023-05-07T03:37:35;9.88;;;4.85;;
79401;SDS011;68857;47.916;106.940;2023-05-07T03:40:01;10.30;;;4.35;;
79401;SDS011;68857;47.916;106.940;2023-05-07T03:42:28;12.15;;;4.70;;
79401;SDS011;68857;47.916;106.940;2023-05-07T03:44:55;12.50;;;4.45;;
79401;SDS011;68857;47.916;106.940;2023-05-07T03:47:22;10.40;;;4.75;;
79401;SDS011;68857;47.916;106.940;2023-05-07T03:49:48;9.20;;;4.45;;
79401;SDS011;68857;47.916;106.940;2023-05-07T03:52:15;10.77;;;4.43;;
79401;SDS011;68857;47.916;106.940;2023-05-07T03:54:48;9.20;;;5.40;;
79401;SDS011;68857;47.916;106.940;2023-05-07T03:57:14;13.35;;;5.43;;
79401;SDS011;68857;47.916;106.940;2023-05-07T03:59:41;8.73;;;4.50;;
79401;SDS011;68857;47.916;106.940;2023-05-07T04:02:08;10.82;;;4.70;;
79401;SDS011;68857;47.916;106.940;2023-05-07T04:04:34;9.38;;;4.95;;
79401;SDS011;68857;47.916;106.940;2023-05-07T04:07:00;10.80;;;4.75;;
79401;SDS011;68857;47.916;106.940;2023-05-07T04:09:28;10.23;;;4.22;;
79401;SDS011;68857;47.916;106.940;2023-05-07T04:11:54;10.52;;;4.85;;
79401;SDS011;68857;47.916;106.940;2023-05-07T04:14:21;10.07;;;4.50;;
79401;SDS011;68857;47.916;106.940;2023-05-07T04:16:47;14.75;;;4.95;;
79401;SDS011;68857;47.916;106.940;2023-05-07T04:19:14;14.07;;;4.50;;
79401;SDS011;68857;47.916;106.940;2023-05-07T04:21:41;8.70;;;4.57;;
79401;SDS011;68857;47.916;106.940;2023-05-07T04:24:07;10.25;;;4.90;;
79401;SDS011;68857;47.916;106.940;2023-05-07T04:26:34;9.32;;;4.30;;
79401;SDS011;68857;47.916;106.940;2023-05-07T04:29:01;12.65;;;5.32;;
79401;SDS011;68857;47.916;106.940;2023-05-07T04:31:28;8.90;;;5.10;;
79401;SDS011;68857;47.916;106.940;2023-05-07T04:33:55;8.98;;;3.88;;
79401;SDS011;68857;47.916;106.940;2023-05-07T04:36:22;8.30;;;4.28;;
79401;SDS011;68857;47.916;106.940;2023-05-07T04:38:53;7.68;;;4.65;;
79401;SDS011;68857;47.916;106.940;2023-05-07T04:41:19;7.18;;;3.95;;
79401;SDS011;68857;47.916;106.940;2023-05-07T04:43:46;9.52;;;4.05;;
79401;SDS011;68857;47.916;106.940;2023-05-07T04:46:12;8.20;;;3.72;;
79401;SDS011;68857;47.916;106.940;2023-05-07T04:48:39;8.93;;;4.13;;
79401;SDS011;68857;47.916;106.940;2023-05-07T04:51:06;8.27;;;4.03;;
79401;SDS011;68857;47.916;106.940;2023-05-07T04:53:32;7.38;;;3.83;;
79401;SDS011;68857;47.916;106.940;2023-05-07T04:55:58;8.85;;;3.40;;
79401;SDS011;68857;47.916;106.940;2023-05-07T04:58:25;7.05;;;3.33;;
79401;SDS011;68857;47.916;106.940;2023-05-07T05:00:52;6.60;;;3.67;;
79401;SDS011;68857;47.916;106.940;2023-05-07T05:03:19;8.50;;;3.15;;
79401;SDS011;68857;47.916;106.940;2023-05-07T05:05:45;6.38;;;3.50;;
79401;SDS011;68857;47.916;106.940;2023-05-07T05:08:11;7.07;;;3.35;;
79401;SDS011;68857;47.916;106.940;2023-05-07T05:10:38;5.40;;;3.47;;
79401;SDS011;68857;47.916;106.940;2023-05-07T05:13:06;6.35;;;3.25;;
79401;SDS011;68857;47.916;106.940;2023-05-07T05:15:33;6.75;;;4.38;;
79401;SDS011;68857;47.916;106.940;2023-05-07T05:17:59;7.40;;;2.92;;
79401;SDS011;68857;47.916;106.940;2023-05-07T05:20:26;6.35;;;3.20;;
79401;SDS011;68857;47.916;106.940;2023-05-07T05:22:52;5.72;;;3.05;;
79401;SDS011;68857;47.916;106.940;2023-05-07T05:25:19;4.70;;;3.05;;
79401;SDS011;68857;47.916;106.940;2023-05-07T05:27:46;5.05;;;3.00;;
79401;SDS011;68857;47.916;106.940;2023-05-07T05:30:12;4.55;;;2.30;;
79401;SDS011;68857;47.916;106.940;2023-05-07T05:32:39;7.63;;;3.92;;
79401;SDS011;68857;47.916;106.940;2023-05-07T05:35:05;7.32;;;2.63;;
79401;SDS011;68857;47.916;106.940;2023-05-07T05:37:32;4.15;;;2.72;;
79401;SDS011;68857;47.916;106.940;2023-05-07T05:39:59;5.68;;;3.40;;
79401;SDS011;68857;47.916;106.940;2023-05-07T05:42:25;5.85;;;2.92;;
79401;SDS011;68857;47.916;106.940;2023-05-07T05:44:52;4.75;;;2.58;;
79401;SDS011;68857;47.916;106.940;2023-05-07T05:47:18;4.85;;;3.25;;
79401;SDS011;68857;47.916;106.940;2023-05-07T05:49:45;7.55;;;3.45;;
79401;SDS011;68857;47.916;106.940;2023-05-07T05:52:11;7.00;;;2.53;;
79401;SDS011;68857;47.916;106.940;2023-05-07T05:54:39;5.63;;;2.65;;
79401;SDS011;68857;47.916;106.940;2023-05-07T05:57:06;5.85;;;2.80;;
79401;SDS011;68857;47.916;106.940;2023-05-07T05:59:32;5.30;;;2.50;;
79401;SDS011;68857;47.916;106.940;2023-05-07T06:01:59;5.82;;;2.65;;
79401;SDS011;68857;47.916;106.940;2023-05-07T06:04:25;4.10;;;2.50;;
79401;SDS011;68857;47.916;106.940;2023-05-07T06:06:52;4.78;;;2.72;;
79401;SDS011;68857;47.916;106.940;2023-05-07T06:09:18;6.03;;;2.78;;
79401;SDS011;68857;47.916;106.940;2023-05-07T06:11:45;4.45;;;2.53;;
79401;SDS011;68857;47.916;106.940;2023-05-07T06:14:12;5.85;;;3.40;;
79401;SDS011;68857;47.916;106.940;2023-05-07T06:16:38;4.47;;;2.45;;
79401;SDS011;68857;47.916;106.940;2023-05-07T06:19:05;3.85;;;1.95;;
79401;SDS011;68857;47.916;106.940;2023-05-07T06:21:31;3.65;;;2.20;;
79401;SDS011;68857;47.916;106.940;2023-05-07T06:23:58;4.07;;;2.28;;
79401;SDS011;68857;47.916;106.940;2023-05-07T06:26:24;6.25;;;2.83;;
79401;SDS011;68857;47.916;106.940;2023-05-07T06:28:51;3.65;;;1.75;;
79401;SDS011;68857;47.916;106.940;2023-05-07T06:31:18;6.53;;;2.92;;
79401;SDS011;68857;47.916;106.940;2023-05-07T06:33:49;3.35;;;2.67;;
79401;SDS011;68857;47.916;106.940;2023-05-07T06:36:15;3.85;;;2.65;;
79401;SDS011;68857;47.916;106.940;2023-05-07T06:38:42;4.45;;;2.25;;
79401;SDS011;68857;47.916;106.940;2023-05-07T06:41:08;4.28;;;2.17;;
79401;SDS011;68857;47.916;106.940;2023-05-07T06:43:35;6.55;;;2.30;;
79401;SDS011;68857;47.916;106.940;2023-05-07T06:46:01;4.35;;;2.22;;
79401;SDS011;68857;47.916;106.940;2023-05-07T06:48:28;4.82;;;2.90;;
79401;SDS011;68857;47.916;106.940;2023-05-07T06:50:55;4.55;;;2.20;;
79401;SDS011;68857;47.916;106.940;2023-05-07T06:53:23;3.03;;;2.17;;
79401;SDS011;68857;47.916;106.940;2023-05-07T06:55:51;3.63;;;1.90;;
79401;SDS011;68857;47.916;106.940;2023-05-07T06:58:17;3.20;;;2.53;;
79401;SDS011;68857;47.916;106.940;2023-05-07T07:00:44;2.90;;;2.35;;
79401;SDS011;68857;47.916;106.940;2023-05-07T07:03:11;2.25;;;1.75;;
79401;SDS011;68857;47.916;106.940;2023-05-07T07:05:40;3.38;;;2.05;;
79401;SDS011;68857;47.916;106.940;2023-05-07T07:08:06;4.60;;;2.33;;
79401;SDS011;68857;47.916;106.940;2023-05-07T07:10:33;3.70;;;2.05;;
79401;SDS011;68857;47.916;106.940;2023-05-07T07:13:00;6.28;;;2.75;;
79401;SDS011;68857;47.916;106.940;2023-05-07T07:15:26;4.18;;;2.67;;
79401;SDS011;68857;47.916;106.940;2023-05-07T07:17:53;3.60;;;1.67;;
79401;SDS011;68857;47.916;106.940;2023-05-07T07:20:20;3.60;;;2.25;;
79401;SDS011;68857;47.916;106.940;2023-05-07T07:22:46;5.55;;;2.30;;
79401;SDS011;68857;47.916;106.940;2023-05-07T07:25:13;3.05;;;2.03;;
79401;SDS011;68857;47.916;106.940;2023-05-07T07:27:40;3.40;;;2.00;;
79401;SDS011;68857;47.916;106.940;2023-05-07T07:30:06;3.45;;;1.40;;
79401;SDS011;68857;47.916;106.940;2023-05-07T07:32:34;4.15;;;3.47;;
79401;SDS011;68857;47.916;106.940;2023-05-07T07:35:00;3.38;;;1.92;;
79401;SDS011;68857;47.916;106.940;2023-05-07T07:37:27;4.32;;;1.85;;
79401;SDS011;68857;47.916;106.940;2023-05-07T07:39:54;2.88;;;2.03;;
79401;SDS011;68857;47.916;106.940;2023-05-07T07:42:21;3.90;;;2.42;;
79401;SDS011;68857;47.916;106.940;2023-05-07T07:44:48;3.72;;;1.70;;
79401;SDS011;68857;47.916;106.940;2023-05-07T07:47:14;2.70;;;1.63;;
79401;SDS011;68857;47.916;106.940;2023-05-07T07:49:41;3.22;;;1.92;;
79401;SDS011;68857;47.916;106.940;2023-05-07T07:52:07;4.97;;;2.22;;
79401;SDS011;68857;47.916;106.940;2023-05-07T07:54:34;3.63;;;1.80;;
79401;SDS011;68857;47.916;106.940;2023-05-07T07:57:01;5.15;;;1.67;;
79401;SDS011;68857;47.916;106.940;2023-05-07T07:59:27;3.67;;;2.03;;
79401;SDS011;68857;47.916;106.940;2023-05-07T08:01:54;2.47;;;1.75;;
79401;SDS011;68857;47.916;106.940;2023-05-07T08:04:22;2.83;;;1.70;;
79401;SDS011;68857;47.916;106.940;2023-05-07T08:06:48;2.50;;;1.95;;
79401;SDS011;68857;47.916;106.940;2023-05-07T08:09:15;3.15;;;1.85;;
79401;SDS011;68857;47.916;106.940;2023-05-07T08:11:42;2.35;;;1.92;;
79401;SDS011;68857;47.916;106.940;2023-05-07T08:14:09;2.30;;;1.60;;
79401;SDS011;68857;47.916;106.940;2023-05-07T08:16:35;3.35;;;1.70;;
79401;SDS011;68857;47.916;106.940;2023-05-07T08:19:02;2.55;;;1.83;;
79401;SDS011;68857;47.916;106.940;2023-05-07T08:21:28;2.85;;;1.63;;
79401;SDS011;68857;47.916;106.940;2023-05-07T08:23:56;2.63;;;1.70;;
79401;SDS011;68857;47.916;106.940;2023-05-07T08:26:22;2.20;;;1.30;;
79401;SDS011;68857;47.916;106.940;2023-05-07T08:28:49;2.33;;;1.83;;
79401;SDS011;68857;47.916;106.940;2023-05-07T08:31:16;2.33;;;1.55;;
79401;SDS011;68857;47.916;106.940;2023-05-07T08:33:42;3.10;;;1.90;;
79401;SDS011;68857;47.916;106.940;2023-05-07T08:36:09;1.85;;;1.55;;
79401;SDS011;68857;47.916;106.940;2023-05-07T08:38:35;2.85;;;1.73;;
79401;SDS011;68857;47.916;106.940;2023-05-07T08:41:02;1.83;;;1.40;;
79401;SDS011;68857;47.916;106.940;2023-05-07T08:43:29;3.13;;;2.92;;
79401;SDS011;68857;47.916;106.940;2023-05-07T08:45:59;2.47;;;2.03;;
79401;SDS011;68857;47.916;106.940;2023-05-07T08:48:29;2.80;;;1.95;;
79401;SDS011;68857;47.916;106.940;2023-05-07T08:50:57;2.50;;;1.85;;
79401;SDS011;68857;47.916;106.940;2023-05-07T08:53:24;2.35;;;1.52;;
79401;SDS011;68857;47.916;106.940;2023-05-07T08:55:51;3.03;;;1.52;;
79401;SDS011;68857;47.916;106.940;2023-05-07T08:58:18;2.10;;;1.58;;
79401;SDS011;68857;47.916;106.940;2023-05-07T09:00:45;2.65;;;1.63;;
79401;SDS011;68857;47.916;106.940;2023-05-07T09:03:12;2.28;;;1.70;;
79401;SDS011;68857;47.916;106.940;2023-05-07T09:05:39;2.00;;;1.65;;
79401;SDS011;68857;47.916;106.940;2023-05-07T09:08:07;2.67;;;2.47;;
79401;SDS011;68857;47.916;106.940;2023-05-07T09:10:33;3.03;;;1.42;;
79401;SDS011;68857;47.916;106.940;2023-05-07T09:13:00;2.35;;;1.40;;
79401;SDS011;68857;47.916;106.940;2023-05-07T09:15:27;2.00;;;1.67;;
79401;SDS011;68857;47.916;106.940;2023-05-07T09:17:56;2.88;;;1.27;;
79401;SDS011;68857;47.916;106.940;2023-05-07T09:20:26;2.13;;;1.60;;
79401;SDS011;68857;47.916;106.940;2023-05-07T09:22:55;2.75;;;1.58;;
79401;SDS011;68857;47.916;106.940;2023-05-07T09:25:28;5.13;;;1.52;;
79401;SDS011;68857;47.916;106.940;2023-05-07T09:27:55;1.77;;;1.50;;
79401;SDS011;68857;47.916;106.940;2023-05-07T09:30:22;2.33;;;1.92;;
79401;SDS011;68857;47.916;106.940;2023-05-07T09:32:48;1.90;;;1.73;;
79401;SDS011;68857;47.916;106.940;2023-05-07T09:35:16;1.90;;;1.60;;
79401;SDS011;68857;47.916;106.940;2023-05-07T09:37:43;2.88;;;1.65;;
79401;SDS011;68857;47.916;106.940;2023-05-07T09:40:19;2.78;;;1.88;;
79401;SDS011;68857;47.916;106.940;2023-05-07T09:42:47;3.22;;;1.38;;
79401;SDS011;68857;47.916;106.940;2023-05-07T09:45:15;3.17;;;1.83;;
79401;SDS011;68857;47.916;106.940;2023-05-07T09:47:42;1.92;;;1.30;;
79401;SDS011;68857;47.916;106.940;2023-05-07T09:50:13;3.00;;;1.73;;
79401;SDS011;68857;47.916;106.940;2023-05-07T09:52:41;2.13;;;1.55;;
79401;SDS011;68857;47.916;106.940;2023-05-07T09:55:08;2.20;;;1.65;;
79401;SDS011;68857;47.916;106.940;2023-05-07T09:57:35;2.63;;;1.70;;
79401;SDS011;68857;47.916;106.940;2023-05-07T10:00:02;1.85;;;1.50;;
79401;SDS011;68857;47.916;106.940;2023-05-07T10:02:34;2.97;;;1.75;;
79401;SDS011;68857;47.916;106.940;2023-05-07T10:05:02;4.90;;;2.03;;
79401;SDS011;68857;47.916;106.940;2023-05-07T10:07:28;2.67;;;1.58;;
79401;SDS011;68857;47.916;106.940;2023-05-07T10:09:56;3.03;;;2.38;;
79401;SDS011;68857;47.916;106.940;2023-05-07T10:12:24;5.93;;;4.40;;
79401;SDS011;68857;47.916;106.940;2023-05-07T10:14:50;8.32;;;5.93;;
79401;SDS011;68857;47.916;106.940;2023-05-07T10:17:18;7.18;;;5.35;;
79401;SDS011;68857;47.916;106.940;2023-05-07T10:19:45;10.23;;;5.90;;
79401;SDS011;68857;47.916;106.940;2023-05-07T10:22:12;9.50;;;6.03;;
79401;SDS011;68857;47.916;106.940;2023-05-07T10:24:40;8.48;;;6.18;;
79401;SDS011;68857;47.916;106.940;2023-05-07T10:27:08;7.45;;;5.78;;
79401;SDS011;68857;47.916;106.940;2023-05-07T10:29:54;9.73;;;7.03;;
79401;SDS011;68857;47.916;106.940;2023-05-07T10:34:53;12.05;;;8.32;;
79401;SDS011;68857;47.916;106.940;2023-05-07T10:37:21;11.95;;;8.63;;
79401;SDS011;68857;47.916;106.940;2023-05-07T10:39:48;11.40;;;7.78;;
79401;SDS011;68857;47.916;106.940;2023-05-07T10:42:14;11.88;;;8.40;;
79401;SDS011;68857;47.916;106.940;2023-05-07T10:44:41;13.88;;;9.07;;
79401;SDS011;68857;47.916;106.940;2023-05-07T10:47:12;15.10;;;9.68;;
79401;SDS011;68857;47.916;106.940;2023-05-07T10:52:15;18.73;;;13.10;;
79401;SDS011;68857;47.916;106.940;2023-05-07T10:54:43;21.20;;;13.32;;
79401;SDS011;68857;47.916;106.940;2023-05-07T11:05:27;31.77;;;20.00;;
79401;SDS011;68857;47.916;106.940;2023-05-07T11:07:57;29.02;;;18.45;;
79401;SDS011;68857;47.916;106.940;2023-05-07T11:13:09;23.77;;;15.57;;
79401;SDS011;68857;47.916;106.940;2023-05-07T11:15:37;26.40;;;14.95;;
79401;SDS011;68857;47.916;106.940;2023-05-07T11:18:03;24.02;;;15.23;;
79401;SDS011;68857;47.916;106.940;2023-05-07T11:20:49;22.98;;;13.20;;
79401;SDS011;68857;47.916;106.940;2023-05-07T11:24:02;19.63;;;12.32;;
79401;SDS011;68857;47.916;106.940;2023-05-07T11:28:30;20.38;;;13.05;;
79401;SDS011;68857;47.916;106.940;2023-05-07T11:30:57;17.60;;;10.25;;
79401;SDS011;68857;47.916;106.940;2023-05-07T11:33:24;16.23;;;8.90;;
79401;SDS011;68857;47.916;106.940;2023-05-07T11:35:53;14.73;;;9.60;;
79401;SDS011;68857;47.916;106.940;2023-05-07T11:38:20;16.50;;;8.88;;
79401;SDS011;68857;47.916;106.940;2023-05-07T11:40:49;14.13;;;8.75;;
79401;SDS011;68857;47.916;106.940;2023-05-07T11:43:17;15.55;;;8.95;;
79401;SDS011;68857;47.916;106.940;2023-05-07T11:45:47;14.77;;;8.25;;
79401;SDS011;68857;47.916;106.940;2023-05-07T11:48:13;15.75;;;7.95;;
79401;SDS011;68857;47.916;106.940;2023-05-07T11:50:53;15.45;;;6.93;;
79401;SDS011;68857;47.916;106.940;2023-05-07T11:53:20;9.65;;;6.30;;
79401;SDS011;68857;47.916;106.940;2023-05-07T11:55:46;12.23;;;6.03;;
79401;SDS011;68857;47.916;106.940;2023-05-07T11:58:15;11.80;;;7.22;;
79401;SDS011;68857;47.916;106.940;2023-05-07T12:00:50;13.13;;;6.75;;
79401;SDS011;68857;47.916;106.940;2023-05-07T12:03:17;17.08;;;7.00;;
79401;SDS011;68857;47.916;106.940;2023-05-07T12:05:44;14.50;;;6.97;;
79401;SDS011;68857;47.916;106.940;2023-05-07T12:08:13;13.68;;;6.80;;
79401;SDS011;68857;47.916;106.940;2023-05-07T12:10:41;17.90;;;7.95;;
79401;SDS011;68857;47.916;106.940;2023-05-07T12:13:14;17.27;;;7.55;;
79401;SDS011;68857;47.916;106.940;2023-05-07T12:15:42;23.00;;;7.20;;
79401;SDS011;68857;47.916;106.940;2023-05-07T12:18:08;13.27;;;6.97;;
79401;SDS011;68857;47.916;106.940;2023-05-07T12:20:35;15.77;;;7.20;;
79401;SDS011;68857;47.916;106.940;2023-05-07T12:23:02;16.95;;;7.63;;
79401;SDS011;68857;47.916;106.940;2023-05-07T12:25:30;18.92;;;8.43;;
79401;SDS011;68857;47.916;106.940;2023-05-07T12:27:57;14.45;;;8.30;;
79401;SDS011;68857;47.916;106.940;2023-05-07T12:30:24;19.23;;;8.30;;
79401;SDS011;68857;47.916;106.940;2023-05-07T12:32:54;17.95;;;8.27;;
79401;SDS011;68857;47.916;106.940;2023-05-07T12:35:30;16.15;;;8.20;;
79401;SDS011;68857;47.916;106.940;2023-05-07T12:37:57;16.92;;;8.35;;
79401;SDS011;68857;47.916;106.940;2023-05-07T12:40:34;17.02;;;7.15;;
79401;SDS011;68857;47.916;106.940;2023-05-07T12:43:01;16.35;;;7.68;;
79401;SDS011;68857;47.916;106.940;2023-05-07T12:45:28;14.10;;;7.40;;
79401;SDS011;68857;47.916;106.940;2023-05-07T12:47:54;15.43;;;7.82;;
79401;SDS011;68857;47.916;106.940;2023-05-07T12:50:21;16.88;;;8.20;;
79401;SDS011;68857;47.916;106.940;2023-05-07T12:52:47;20.15;;;8.40;;
79401;SDS011;68857;47.916;106.940;2023-05-07T12:55:15;19.23;;;9.15;;
79401;SDS011;68857;47.916;106.940;2023-05-07T12:57:42;18.45;;;8.23;;
79401;SDS011;68857;47.916;106.940;2023-05-07T13:00:09;17.83;;;7.80;;
79401;SDS011;68857;47.916;106.940;2023-05-07T13:02:39;25.20;;;9.23;;
79401;SDS011;68857;47.916;106.940;2023-05-07T13:05:06;18.00;;;8.68;;
79401;SDS011;68857;47.916;106.940;2023-05-07T13:07:33;21.80;;;9.35;;
79401;SDS011;68857;47.916;106.940;2023-05-07T13:10:00;22.83;;;8.93;;
79401;SDS011;68857;47.916;106.940;2023-05-07T13:12:26;20.20;;;9.27;;
79401;SDS011;68857;47.916;106.940;2023-05-07T13:14:53;24.77;;;9.32;;
79401;SDS011;68857;47.916;106.940;2023-05-07T13:17:19;19.45;;;10.10;;
79401;SDS011;68857;47.916;106.940;2023-05-07T13:19:46;16.38;;;8.98;;
79401;SDS011;68857;47.916;106.940;2023-05-07T13:22:12;20.13;;;9.77;;
79401;SDS011;68857;47.916;106.940;2023-05-07T13:24:39;21.48;;;10.02;;
79401;SDS011;68857;47.916;106.940;2023-05-07T13:27:07;18.13;;;9.55;;
79401;SDS011;68857;47.916;106.940;2023-05-07T13:29:34;15.40;;;8.77;;
79401;SDS011;68857;47.916;106.940;2023-05-07T13:32:00;23.15;;;12.82;;
79401;SDS011;68857;47.916;106.940;2023-05-07T13:34:27;18.13;;;9.20;;
79401;SDS011;68857;47.916;106.940;2023-05-07T13:36:54;22.55;;;11.30;;
79401;SDS011;68857;47.916;106.940;2023-05-07T13:39:21;18.70;;;9.35;;
79401;SDS011;68857;47.916;106.940;2023-05-07T13:41:48;18.60;;;9.85;;
79401;SDS011;68857;47.916;106.940;2023-05-07T13:44:14;18.75;;;9.30;;
79401;SDS011;68857;47.916;106.940;2023-05-07T13:46:41;17.05;;;8.48;;
79401;SDS011;68857;47.916;106.940;2023-05-07T13:49:11;19.60;;;10.68;;
79401;SDS011;68857;47.916;106.940;2023-05-07T13:51:38;17.98;;;9.50;;
79401;SDS011;68857;47.916;106.940;2023-05-07T13:54:04;18.90;;;9.23;;
79401;SDS011;68857;47.916;106.940;2023-05-07T13:56:31;21.52;;;9.20;;
79401;SDS011;68857;47.916;106.940;2023-05-07T13:58:58;20.92;;;8.73;;
79401;SDS011;68857;47.916;106.940;2023-05-07T14:01:25;18.33;;;9.05;;
79401;SDS011;68857;47.916;106.940;2023-05-07T14:03:51;18.45;;;8.85;;
79401;SDS011;68857;47.916;106.940;2023-05-07T14:06:18;18.92;;;8.90;;
79401;SDS011;68857;47.916;106.940;2023-05-07T14:08:45;17.75;;;9.98;;
79401;SDS011;68857;47.916;106.940;2023-05-07T14:11:11;17.02;;;8.50;;
79401;SDS011;68857;47.916;106.940;2023-05-07T14:13:38;16.20;;;7.95;;
79401;SDS011;68857;47.916;106.940;2023-05-07T14:16:04;18.65;;;8.13;;
79401;SDS011;68857;47.916;106.940;2023-05-07T14:18:31;12.98;;;6.75;;
79401;SDS011;68857;47.916;106.940;2023-05-07T14:20:59;12.45;;;7.13;;
79401;SDS011;68857;47.916;106.940;2023-05-07T14:23:26;16.23;;;8.00;;
79401;SDS011;68857;47.916;106.940;2023-05-07T14:25:53;17.88;;;7.10;;
79401;SDS011;68857;47.916;106.940;2023-05-07T14:28:19;15.40;;;6.68;;
79401;SDS011;68857;47.916;106.940;2023-05-07T14:30:46;14.23;;;6.75;;
79401;SDS011;68857;47.916;106.940;2023-05-07T14:33:13;15.30;;;7.25;;